createdAt,value
2022-10-05T00:02:24.259Z,8.90
2022-10-05T00:04:56.304Z,8.95
2022-10-05T00:07:24.502Z,8.90
2022-10-05T00:10:00.351Z,8.92
2022-10-05T00:12:29.805Z,8.90
2022-10-05T00:15:00.338Z,8.95
2022-10-05T00:17:29.590Z,8.93
2022-10-05T00:19:56.432Z,8.96
2022-10-05T00:22:29.308Z,9.01
2022-10-05T00:24:59.173Z,8.93
2022-10-05T00:27:31.220Z,8.82
2022-10-05T00:30:00.241Z,8.74
2022-10-05T00:32:27.359Z,8.70
2022-10-05T00:34:54.636Z,8.65
2022-10-05T00:37:21.253Z,8.64
2022-10-05T00:39:49.551Z,8.60
2022-10-05T00:42:44.011Z,8.66
2022-10-05T00:45:23.542Z,8.72
2022-10-05T00:48:11.133Z,8.66
2022-10-05T00:50:43.684Z,8.60
2022-10-05T00:53:31.639Z,8.58
2022-10-05T00:56:35.490Z,8.48
2022-10-05T00:59:36.831Z,8.49
2022-10-05T01:02:10.643Z,8.46
2022-10-05T01:04:54.207Z,8.45
2022-10-05T01:07:28.648Z,8.33
2022-10-05T01:10:15.965Z,8.38
2022-10-05T01:12:45.716Z,8.36
2022-10-05T01:15:12.542Z,8.46
2022-10-05T01:18:03.002Z,8.46
2022-10-05T01:20:32.252Z,8.51
2022-10-05T01:23:28.273Z,8.49
2022-10-05T01:25:57.689Z,8.48
2022-10-05T01:28:30.021Z,8.30
2022-10-05T01:31:04.678Z,8.30
2022-10-05T01:33:40.239Z,8.18
2022-10-05T01:36:27.005Z,8.21
2022-10-05T01:39:21.029Z,8.18
2022-10-05T01:42:10.664Z,8.18
2022-10-05T01:45:00.059Z,8.28
2022-10-05T01:47:41.878Z,8.25
2022-10-05T01:50:20.079Z,8.26
2022-10-05T01:53:19.684Z,8.25
2022-10-05T01:55:56.593Z,8.30
2022-10-05T01:58:59.282Z,8.33
2022-10-05T02:01:58.927Z,8.28
2022-10-05T02:05:01.019Z,8.26
2022-10-05T02:07:33.849Z,8.20
2022-10-05T02:10:30.894Z,8.21
2022-10-05T02:13:09.524Z,8.18
2022-10-05T02:15:49.942Z,8.12
2022-10-05T02:18:29.829Z,7.99
2022-10-05T02:21:02.917Z,7.96
2022-10-05T02:23:34.972Z,7.88
2022-10-05T02:26:02.081Z,7.69
2022-10-05T02:28:42.006Z,7.53
2022-10-05T02:31:19.602Z,7.54
2022-10-05T02:33:48.184Z,7.50
2022-10-05T02:36:23.703Z,7.52
2022-10-05T02:39:03.436Z,7.52
2022-10-05T02:41:51.680Z,7.49
2022-10-05T02:44:37.202Z,7.49
2022-10-05T02:47:27.867Z,7.43
2022-10-05T02:50:26.846Z,7.41
2022-10-05T02:53:19.517Z,7.41
2022-10-05T02:56:28.503Z,7.55
2022-10-05T02:59:16.851Z,7.57
2022-10-05T03:01:54.947Z,7.35
2022-10-05T03:04:46.449Z,7.53
2022-10-05T03:07:30.223Z,7.45
2022-10-05T03:10:20.880Z,7.53
2022-10-05T03:13:02.188Z,7.47
2022-10-05T03:15:40.882Z,7.40
2022-10-05T03:18:21.781Z,7.33
2022-10-05T03:21:10.360Z,7.36
2022-10-05T03:23:55.104Z,7.28
2022-10-05T03:26:40.632Z,7.35
2022-10-05T03:29:37.837Z,7.25
2022-10-05T03:32:14.832Z,7.37
2022-10-05T03:35:03.539Z,6.99
2022-10-05T03:38:24.826Z,7.24
2022-10-05T03:41:06.232Z,7.20
2022-10-05T03:44:14.245Z,7.16
2022-10-05T03:46:58.675Z,7.16
2022-10-05T03:49:37.591Z,7.15
2022-10-05T03:52:22.831Z,7.16
2022-10-05T03:55:13.000Z,7.06
2022-10-05T03:57:42.206Z,7.23
2022-10-05T04:00:19.483Z,7.26
2022-10-05T04:03:02.212Z,7.26
2022-10-05T04:05:55.489Z,7.15
2022-10-05T04:08:48.446Z,7.20
2022-10-05T04:11:27.573Z,7.08
2022-10-05T04:14:00.861Z,7.03
2022-10-05T04:16:52.233Z,7.11
2022-10-05T04:19:27.644Z,7.03
2022-10-05T04:22:12.477Z,7.06
2022-10-05T04:24:49.541Z,6.86
2022-10-05T04:27:23.452Z,7.02
2022-10-05T04:30:05.115Z,6.99
2022-10-05T04:32:36.737Z,7.06
2022-10-05T04:35:13.170Z,7.04
2022-10-05T04:38:17.324Z,7.04
2022-10-05T04:41:18.855Z,6.99
2022-10-05T04:44:21.391Z,6.92
2022-10-05T04:46:54.189Z,6.99
2022-10-05T04:49:21.408Z,7.00
2022-10-05T04:52:12.887Z,6.97
2022-10-05T04:55:14.781Z,6.91
2022-10-05T04:58:02.545Z,6.88
2022-10-05T05:01:01.671Z,6.78
2022-10-05T05:03:47.262Z,6.88
2022-10-05T05:06:48.294Z,6.99
2022-10-05T05:09:36.871Z,7.30
2022-10-05T05:12:06.868Z,7.54
2022-10-05T05:14:40.431Z,7.74
2022-10-05T05:17:31.940Z,7.80
2022-10-05T05:20:20.941Z,7.91
2022-10-05T05:22:50.405Z,7.80
2022-10-05T05:25:30.087Z,7.52
2022-10-05T05:28:17.761Z,7.16
2022-10-05T05:31:05.514Z,6.80
2022-10-05T05:34:03.757Z,6.78
2022-10-05T05:36:44.189Z,6.65
2022-10-05T05:39:40.137Z,6.59
2022-10-05T05:42:17.044Z,6.63
2022-10-05T05:44:49.458Z,6.69
2022-10-05T05:47:38.388Z,6.75
2022-10-05T05:50:10.229Z,6.76
2022-10-05T05:53:10.781Z,6.81
2022-10-05T05:55:46.383Z,6.92
2022-10-05T05:58:19.283Z,6.92
2022-10-05T06:01:05.876Z,6.93
2022-10-05T06:03:39.811Z,7.08
2022-10-05T06:06:17.783Z,7.11
2022-10-05T06:09:00.678Z,7.17
2022-10-05T06:11:53.093Z,7.13
2022-10-05T06:14:25.610Z,7.27
2022-10-05T06:17:01.969Z,7.31
2022-10-05T06:19:32.282Z,7.20
2022-10-05T06:22:06.780Z,7.39
2022-10-05T06:25:21.056Z,7.44
2022-10-05T06:28:12.937Z,7.37
2022-10-05T06:31:40.958Z,7.57
2022-10-05T06:34:18.931Z,7.63
2022-10-05T06:36:51.301Z,7.67
2022-10-05T06:39:48.790Z,7.71
2022-10-05T06:42:31.498Z,7.71
2022-10-05T06:45:36.185Z,7.76
2022-10-05T06:48:47.104Z,7.80
2022-10-05T06:52:01.536Z,7.88
2022-10-05T06:54:51.589Z,7.98
2022-10-05T06:58:10.344Z,7.90
2022-10-05T07:00:51.532Z,8.20
2022-10-05T07:03:40.743Z,8.28
2022-10-05T07:06:15.325Z,8.73
2022-10-05T07:09:15.123Z,8.98
2022-10-05T07:12:03.740Z,9.55
2022-10-05T07:14:55.164Z,9.92
2022-10-05T07:17:28.806Z,10.25
2022-10-05T07:20:10.711Z,10.54
2022-10-05T07:22:58.724Z,10.77
2022-10-05T07:25:42.854Z,10.92
2022-10-05T07:28:18.276Z,11.30
2022-10-05T07:31:10.564Z,11.50
2022-10-05T07:33:49.973Z,11.64
2022-10-05T07:36:54.841Z,11.71
2022-10-05T07:39:58.643Z,11.98
2022-10-05T07:42:50.907Z,12.34
2022-10-05T07:45:29.158Z,12.58
2022-10-05T07:48:01.879Z,12.73
2022-10-05T07:50:57.459Z,13.04
2022-10-05T07:53:37.669Z,13.32
2022-10-05T07:56:15.753Z,13.57
2022-10-05T07:58:51.599Z,13.84
2022-10-05T08:01:26.751Z,14.05
2022-10-05T08:04:04.292Z,14.44
2022-10-05T08:06:52.243Z,14.85
2022-10-05T08:09:34.592Z,15.10
2022-10-05T08:12:07.907Z,15.63
2022-10-05T08:14:46.545Z,16.03
2022-10-05T08:17:24.006Z,16.13
2022-10-05T08:20:03.028Z,16.76
2022-10-05T08:22:37.964Z,17.01
2022-10-05T08:25:17.648Z,17.44
2022-10-05T08:27:59.877Z,18.00
2022-10-05T08:30:26.550Z,18.42
2022-10-05T08:32:58.836Z,18.57
2022-10-05T08:35:33.997Z,18.66
2022-10-05T08:38:05.258Z,18.71
2022-10-05T08:40:46.886Z,19.07
2022-10-05T08:43:22.921Z,19.40
2022-10-05T08:45:49.531Z,19.58
2022-10-05T08:48:42.601Z,19.78
2022-10-05T08:51:12.049Z,19.94
2022-10-05T08:54:23.074Z,20.08
2022-10-05T08:57:09.864Z,20.26
2022-10-05T08:59:59.652Z,19.84
2022-10-05T09:02:32.045Z,20.08
2022-10-05T09:05:23.473Z,20.48
2022-10-05T09:08:08.558Z,20.81
2022-10-05T09:10:47.417Z,21.15
2022-10-05T09:13:47.992Z,21.03
2022-10-05T09:16:44.054Z,21.38
2022-10-05T09:19:22.851Z,21.71
2022-10-05T09:22:04.966Z,21.75
2022-10-05T09:24:57.133Z,21.63
2022-10-05T09:27:51.141Z,21.66
2022-10-05T09:30:39.522Z,21.97
2022-10-05T09:33:08.797Z,21.91
2022-10-05T09:36:03.316Z,22.23
2022-10-05T09:38:30.852Z,22.57
2022-10-05T09:40:57.601Z,22.32
2022-10-05T09:43:59.504Z,21.45
2022-10-05T09:46:53.278Z,20.87
2022-10-05T09:49:28.976Z,21.35
2022-10-05T09:52:19.072Z,21.64
2022-10-05T09:55:16.768Z,22.61
2022-10-05T09:58:05.547Z,23.52
2022-10-05T10:00:38.311Z,23.78
2022-10-05T10:03:43.042Z,23.93
2022-10-05T10:06:32.890Z,24.24
2022-10-05T10:09:41.069Z,24.29
2022-10-05T10:12:35.638Z,23.34
2022-10-05T10:15:19.580Z,23.37
2022-10-05T10:18:10.863Z,22.82
2022-10-05T10:20:43.675Z,23.17
2022-10-05T10:23:10.266Z,23.40
2022-10-05T10:26:15.750Z,23.58
2022-10-05T10:29:17.971Z,23.81
2022-10-05T10:32:10.115Z,23.97
2022-10-05T10:35:07.849Z,24.06
2022-10-05T10:37:40.791Z,24.14
2022-10-05T10:40:23.283Z,23.77
2022-10-05T10:42:59.098Z,23.35
2022-10-05T10:45:28.672Z,22.98
2022-10-05T10:48:05.068Z,23.16
2022-10-05T10:50:50.647Z,23.62
2022-10-05T10:53:22.776Z,24.02
2022-10-05T10:55:52.055Z,24.19
2022-10-05T10:58:46.576Z,23.74
2022-10-05T11:01:27.200Z,24.12
2022-10-05T11:03:59.918Z,24.60
2022-10-05T11:06:47.543Z,24.65
2022-10-05T11:09:32.365Z,24.90
2022-10-05T11:12:17.836Z,25.14
2022-10-05T11:14:59.111Z,24.47
2022-10-05T11:17:45.805Z,23.68
2022-10-05T11:20:48.301Z,23.16
2022-10-05T11:23:52.528Z,23.22
2022-10-05T11:26:19.105Z,23.25
2022-10-05T11:29:23.441Z,23.44
2022-10-05T11:32:07.830Z,23.76
2022-10-05T11:34:49.709Z,23.71
2022-10-05T11:37:36.545Z,23.62
2022-10-05T11:40:21.393Z,23.68
2022-10-05T11:43:00.162Z,24.06
2022-10-05T11:45:31.817Z,24.45
2022-10-05T11:48:17.004Z,24.88
2022-10-05T11:50:57.809Z,25.51
2022-10-05T11:53:41.294Z,25.87
2022-10-05T11:56:35.931Z,26.16
2022-10-05T11:59:15.747Z,25.80
2022-10-05T12:01:49.587Z,25.52
2022-10-05T12:04:34.560Z,25.62
2022-10-05T12:07:02.767Z,25.94
2022-10-05T12:09:32.050Z,25.98
2022-10-05T12:12:07.696Z,26.11
2022-10-05T12:14:44.248Z,26.15
2022-10-05T12:17:23.227Z,25.84
2022-10-05T12:20:06.766Z,26.05
2022-10-05T12:22:42.353Z,25.87
2022-10-05T12:25:22.061Z,25.16
2022-10-05T12:27:53.979Z,25.08
2022-10-05T12:30:45.572Z,25.70
2022-10-05T12:33:24.032Z,25.94
2022-10-05T12:36:06.292Z,26.20
2022-10-05T12:38:56.268Z,26.21
2022-10-05T12:41:33.963Z,25.35
2022-10-05T12:44:19.126Z,25.99
2022-10-05T12:47:13.559Z,26.38
2022-10-05T12:50:18.715Z,25.70
2022-10-05T12:52:59.779Z,26.26
2022-10-05T12:55:47.597Z,26.41
2022-10-05T12:58:51.303Z,26.72
2022-10-05T13:01:41.568Z,26.48
2022-10-05T13:04:14.262Z,25.94
2022-10-05T13:07:10.533Z,25.44
2022-10-05T13:09:57.878Z,25.38
2022-10-05T13:12:46.723Z,25.51
2022-10-05T13:15:31.299Z,25.20
2022-10-05T13:18:06.578Z,25.20
2022-10-05T13:20:41.876Z,25.49
2022-10-05T13:23:08.489Z,25.45
2022-10-05T13:25:41.671Z,25.34
2022-10-05T13:28:15.316Z,25.47
2022-10-05T13:30:51.115Z,25.25
2022-10-05T13:33:42.207Z,24.87
2022-10-05T13:36:30.043Z,24.82
2022-10-05T13:39:14.503Z,25.24
2022-10-05T13:42:26.782Z,25.50
2022-10-05T13:45:01.070Z,25.89
2022-10-05T13:47:43.131Z,25.83
2022-10-05T13:50:18.904Z,25.73
2022-10-05T13:52:50.873Z,25.70
2022-10-05T13:55:39.291Z,25.82
2022-10-05T13:58:23.963Z,25.59
2022-10-05T14:00:54.470Z,25.18
2022-10-05T14:03:28.194Z,25.14
2022-10-05T14:05:59.870Z,25.22
2022-10-05T14:08:33.421Z,25.25
2022-10-05T14:11:08.666Z,25.24
2022-10-05T14:13:47.071Z,25.21
2022-10-05T14:16:13.722Z,25.10
2022-10-05T14:19:04.547Z,24.80
2022-10-05T14:21:42.548Z,24.44
2022-10-05T14:24:25.871Z,24.25
2022-10-05T14:27:47.768Z,24.29
2022-10-05T14:30:14.403Z,24.29
2022-10-05T14:33:03.015Z,24.28
2022-10-05T14:35:43.503Z,24.34
2022-10-05T14:38:55.102Z,24.05
2022-10-05T14:41:27.893Z,23.81
2022-10-05T14:44:02.148Z,24.12
2022-10-05T14:46:32.674Z,24.18
2022-10-05T14:49:36.056Z,24.04
2022-10-05T14:52:32.673Z,24.14
2022-10-05T14:55:11.560Z,23.88
2022-10-05T14:57:52.078Z,23.86
2022-10-05T15:00:19.261Z,23.61
2022-10-05T15:03:19.727Z,23.50
2022-10-05T15:05:53.379Z,23.41
2022-10-05T15:08:45.123Z,23.29
2022-10-05T15:11:48.621Z,23.30
2022-10-05T15:14:21.553Z,23.22
2022-10-05T15:16:52.763Z,23.33
2022-10-05T15:19:24.829Z,23.27
2022-10-05T15:22:06.911Z,23.20
2022-10-05T15:24:43.988Z,23.16
2022-10-05T15:27:18.144Z,23.17
2022-10-05T15:30:04.432Z,23.26
2022-10-05T15:32:42.837Z,23.27
2022-10-05T15:35:43.749Z,23.32
2022-10-05T15:38:25.846Z,23.39
2022-10-05T15:40:59.078Z,23.40
2022-10-05T15:43:38.996Z,23.23
2022-10-05T15:46:26.335Z,23.23
2022-10-05T15:48:52.939Z,23.26
2022-10-05T15:51:37.969Z,23.29
2022-10-05T15:54:43.311Z,23.27
2022-10-05T15:57:18.892Z,23.22
2022-10-05T16:00:13.202Z,23.19
2022-10-05T16:02:58.232Z,23.14
2022-10-05T16:05:55.965Z,23.08
2022-10-05T16:08:53.427Z,22.98
2022-10-05T16:11:32.235Z,22.85
2022-10-05T16:14:46.505Z,22.73
2022-10-05T16:17:28.503Z,22.54
2022-10-05T16:20:02.967Z,22.46
2022-10-05T16:23:13.770Z,22.23
2022-10-05T16:26:13.185Z,22.14
2022-10-05T16:28:42.838Z,21.99
2022-10-05T16:31:22.164Z,21.82
2022-10-05T16:34:17.068Z,21.70
2022-10-05T16:36:58.326Z,21.56
2022-10-05T16:39:51.392Z,21.46
2022-10-05T16:42:27.372Z,21.34
2022-10-05T16:45:23.259Z,21.19
2022-10-05T16:48:13.495Z,21.01
2022-10-05T16:50:54.613Z,20.87
2022-10-05T16:53:44.899Z,20.72
2022-10-05T16:56:18.570Z,20.43
2022-10-05T16:59:19.600Z,20.33
2022-10-05T17:02:02.124Z,20.31
2022-10-05T17:05:00.775Z,20.19
2022-10-05T17:07:36.352Z,20.04
2022-10-05T17:10:21.467Z,19.86
2022-10-05T17:13:22.088Z,19.58
2022-10-05T17:16:14.807Z,19.49
2022-10-05T17:19:19.451Z,19.36
2022-10-05T17:22:00.442Z,19.18
2022-10-05T17:24:27.156Z,19.04
2022-10-05T17:26:56.096Z,18.84
2022-10-05T17:29:24.804Z,18.74
2022-10-05T17:32:06.821Z,18.59
2022-10-05T17:34:36.477Z,18.45
2022-10-05T17:37:27.919Z,18.30
2022-10-05T17:39:56.116Z,18.14
2022-10-05T17:42:25.937Z,18.00
2022-10-05T17:45:02.540Z,17.82
2022-10-05T17:48:04.084Z,17.58
2022-10-05T17:50:56.482Z,17.45
2022-10-05T17:54:02.609Z,17.31
2022-10-05T17:57:12.933Z,17.19
2022-10-05T17:59:44.567Z,17.07
2022-10-05T18:02:37.497Z,16.85
2022-10-05T18:05:04.597Z,16.83
2022-10-05T18:07:33.731Z,16.75
2022-10-05T18:10:12.429Z,16.68
2022-10-05T18:12:44.972Z,16.23
2022-10-05T18:15:16.548Z,16.51
2022-10-05T18:17:46.423Z,16.21
2022-10-05T18:20:26.312Z,16.12
2022-10-05T18:23:03.132Z,16.12
2022-10-05T18:25:49.104Z,16.01
2022-10-05T18:28:21.883Z,15.90
2022-10-05T18:31:20.559Z,15.81
2022-10-05T18:34:01.534Z,15.50
2022-10-05T18:36:38.046Z,15.70
2022-10-05T18:39:26.663Z,15.59
2022-10-05T18:42:20.232Z,15.54
2022-10-05T18:44:55.283Z,15.42
2022-10-05T18:47:42.591Z,15.32
2022-10-05T18:50:12.236Z,15.24
2022-10-05T18:52:57.870Z,15.18
2022-10-05T18:55:33.153Z,15.14
2022-10-05T18:58:07.408Z,14.96
2022-10-05T19:00:45.099Z,14.78
2022-10-05T19:04:04.550Z,14.43
2022-10-05T19:06:39.720Z,14.70
2022-10-05T19:09:44.966Z,14.63
2022-10-05T19:12:14.462Z,14.58
2022-10-05T19:15:04.780Z,14.35
2022-10-05T19:17:49.870Z,14.55
2022-10-05T19:20:28.736Z,14.55
2022-10-05T19:23:09.639Z,14.53
2022-10-05T19:25:48.466Z,14.42
2022-10-05T19:28:38.605Z,14.17
2022-10-05T19:31:14.943Z,14.27
2022-10-05T19:34:19.390Z,14.20
2022-10-05T19:37:09.700Z,13.94
2022-10-05T19:39:44.296Z,14.02
2022-10-05T19:42:20.191Z,13.98
2022-10-05T19:45:10.288Z,13.91
2022-10-05T19:48:09.613Z,13.98
2022-10-05T19:50:40.894Z,13.95
2022-10-05T19:53:10.241Z,13.91
2022-10-05T19:55:43.604Z,13.87
2022-10-05T19:58:39.984Z,13.79
2022-10-05T20:01:11.256Z,13.74
2022-10-05T20:03:38.541Z,13.53
2022-10-05T20:06:07.797Z,13.61
2022-10-05T20:08:40.349Z,13.68
2022-10-05T20:11:11.583Z,13.43
2022-10-05T20:13:44.395Z,13.62
2022-10-05T20:16:35.896Z,13.60
2022-10-05T20:19:42.505Z,13.54
2022-10-05T20:22:30.078Z,13.40
2022-10-05T20:25:18.093Z,13.34
2022-10-05T20:27:48.149Z,13.31
2022-10-05T20:30:21.355Z,13.28
2022-10-05T20:32:52.687Z,13.27
2022-10-05T20:35:23.279Z,13.02
2022-10-05T20:37:49.981Z,13.18
2022-10-05T20:40:18.711Z,13.17
2022-10-05T20:42:46.037Z,13.00
2022-10-05T20:45:13.858Z,13.06
2022-10-05T20:47:40.709Z,13.18
2022-10-05T20:50:09.449Z,13.16
2022-10-05T20:52:37.357Z,13.01
2022-10-05T20:55:06.099Z,13.05
2022-10-05T20:57:32.783Z,12.86
2022-10-05T20:59:59.501Z,12.86
2022-10-05T21:02:26.251Z,12.79
2022-10-05T21:04:52.947Z,12.70
2022-10-05T21:07:21.122Z,12.89
2022-10-05T21:09:47.840Z,12.66
2022-10-05T21:12:16.351Z,12.90
2022-10-05T21:14:43.349Z,12.55
2022-10-05T21:17:11.913Z,12.84
2022-10-05T21:19:39.354Z,12.70
2022-10-05T21:22:10.027Z,12.75
2022-10-05T21:24:38.856Z,12.45
2022-10-05T21:27:06.217Z,12.70
2022-10-05T21:29:35.229Z,12.45
2022-10-05T21:32:02.158Z,12.54
2022-10-05T21:34:28.909Z,12.70
2022-10-05T21:36:55.751Z,12.65
2022-10-05T21:39:22.422Z,12.71
2022-10-05T21:41:49.867Z,12.45
2022-10-05T21:44:16.810Z,12.75
2022-10-05T21:46:43.719Z,12.75
2022-10-05T21:49:10.527Z,12.65
2022-10-05T21:51:38.412Z,12.70
2022-10-05T21:54:12.069Z,12.71
2022-10-05T21:56:43.644Z,12.73
2022-10-05T21:59:15.658Z,12.28
2022-10-05T22:01:42.383Z,12.49
2022-10-05T22:04:09.184Z,12.45
2022-10-05T22:06:36.229Z,12.52
2022-10-05T22:09:04.464Z,12.52
2022-10-05T22:11:31.660Z,12.43
2022-10-05T22:14:02.407Z,12.49
2022-10-05T22:16:32.801Z,12.46
2022-10-05T22:19:04.339Z,12.44
2022-10-05T22:21:34.008Z,12.43
2022-10-05T22:24:02.669Z,12.13
2022-10-05T22:26:29.956Z,12.34
2022-10-05T22:28:57.037Z,12.25
2022-10-05T22:31:24.287Z,12.32
2022-10-05T22:33:51.520Z,12.27
2022-10-05T22:36:18.772Z,12.20
2022-10-05T22:38:47.423Z,12.13
2022-10-05T22:41:16.419Z,12.21
2022-10-05T22:43:43.110Z,12.17
2022-10-05T22:46:12.068Z,12.19
2022-10-05T22:48:39.798Z,12.19
2022-10-05T22:51:07.372Z,12.15
2022-10-05T22:53:34.874Z,12.16
2022-10-05T22:56:12.558Z,12.23
2022-10-05T22:58:40.559Z,12.14
2022-10-05T23:01:13.862Z,12.16
2022-10-05T23:03:41.179Z,11.98
2022-10-05T23:06:10.375Z,11.93
2022-10-05T23:08:38.233Z,11.62
2022-10-05T23:11:10.736Z,12.02
2022-10-05T23:13:37.584Z,11.96
2022-10-05T23:16:08.574Z,12.08
2022-10-05T23:18:35.608Z,12.07
2022-10-05T23:21:02.764Z,12.10
2022-10-05T23:23:29.446Z,12.04
2022-10-05T23:26:00.593Z,11.96
2022-10-05T23:28:28.788Z,11.99
2022-10-05T23:31:04.688Z,11.85
2022-10-05T23:33:31.699Z,11.86
2022-10-05T23:36:01.946Z,11.89
2022-10-05T23:38:29.986Z,11.81
2022-10-05T23:40:58.784Z,11.87
2022-10-05T23:43:26.776Z,11.85
2022-10-05T23:45:53.485Z,11.47
2022-10-05T23:48:20.088Z,11.63
2022-10-05T23:50:47.803Z,11.71
2022-10-05T23:53:15.364Z,11.64
2022-10-05T23:55:42.087Z,11.64
2022-10-05T23:58:09.007Z,11.71
